Terminal Aerodrome Forecast
Issued by NWS

Home | Current Version | Previous Version | Text Only | Print | Product List | Glossary On
Versions: 1 2 3 4 5 6 7 8 9 10 11 12 13 14 15 16 17 18 19 20 21 22 23 24 25 26 27 28
000
FTUS44 KSJT 041400 AAA
TAFBBD
TAF AMD
KBBD 041442Z 0415/0512 VRB03KT 1/2SM FG VV002
     FM041900 02016G25KT 5SM -SHRA BR OVC015
     FM042300 01020G30KT 4SM -FZRA BR OVC008
     FM050400 36021G30KT 4SM -FZRAPL BR OVC006=

USA.gov is the U.S. government's official web portal to all federal, state and local government web resources and services.